createdAt,value
2023-04-14T00:01:37.036Z,9.68
2023-04-14T00:04:05.832Z,9.67
2023-04-14T00:06:34.635Z,9.67
2023-04-14T00:09:03.397Z,9.67
2023-04-14T00:11:32.055Z,9.67
2023-04-14T00:14:01.872Z,9.69
2023-04-14T00:16:31.332Z,9.70
2023-04-14T00:19:00.375Z,9.69
2023-04-14T00:21:29.077Z,9.73
2023-04-14T00:23:57.830Z,9.74
2023-04-14T00:26:26.558Z,9.78
2023-04-14T00:28:55.452Z,9.79
2023-04-14T00:31:24.184Z,9.78
2023-04-14T00:33:54.096Z,9.77
2023-04-14T00:36:22.753Z,9.77
2023-04-14T00:38:51.442Z,9.76
2023-04-14T00:41:20.109Z,9.70
2023-04-14T00:43:48.705Z,9.69
2023-04-14T00:46:18.319Z,9.70
2023-04-14T00:48:47.185Z,9.69
2023-04-14T00:51:16.209Z,9.67
2023-04-14T00:53:44.980Z,9.66
2023-04-14T00:56:13.777Z,9.65
2023-04-14T00:58:42.409Z,9.62
2023-04-14T01:01:11.426Z,9.59
2023-04-14T01:03:42.296Z,9.57
2023-04-14T01:06:11.289Z,9.50
2023-04-14T01:08:41.224Z,9.48
2023-04-14T01:11:40.225Z,9.49
2023-04-14T01:14:28.359Z,9.52
2023-04-14T01:17:05.415Z,9.52
2023-04-14T01:20:07.696Z,9.36
2023-04-14T01:22:48.100Z,8.95
2023-04-14T01:25:55.087Z,8.68
2023-04-14T01:29:03.578Z,8.65
2023-04-14T01:31:54.054Z,8.43
2023-04-14T01:34:38.116Z,8.34
2023-04-14T01:37:12.692Z,8.36
2023-04-14T01:39:54.927Z,8.41
2023-04-14T01:42:31.102Z,8.44
2023-04-14T01:45:17.403Z,8.44
2023-04-14T01:47:47.475Z,8.47
2023-04-14T01:50:18.157Z,8.50
2023-04-14T01:52:51.671Z,8.54
2023-04-14T01:55:23.816Z,8.57
2023-04-14T01:57:54.554Z,8.60
2023-04-14T02:00:24.790Z,8.64
2023-04-14T02:02:55.059Z,8.67
2023-04-14T02:05:25.603Z,8.69
2023-04-14T02:07:55.914Z,8.73
2023-04-14T02:10:25.237Z,8.77
2023-04-14T02:12:58.074Z,8.83
2023-04-14T02:15:28.878Z,8.85
2023-04-14T02:17:58.797Z,8.91
2023-04-14T02:20:29.682Z,8.89
2023-04-14T02:22:58.589Z,8.89
2023-04-14T02:25:33.335Z,8.88
2023-04-14T02:28:14.194Z,8.78
2023-04-14T02:30:47.396Z,8.66
2023-04-14T02:33:23.124Z,8.54
2023-04-14T02:36:06.541Z,8.47
2023-04-14T02:38:52.820Z,8.44
2023-04-14T02:41:26.632Z,8.45
2023-04-14T02:44:12.800Z,8.42
2023-04-14T02:47:07.868Z,8.47
2023-04-14T02:49:48.684Z,8.54
2023-04-14T02:52:22.256Z,8.60
2023-04-14T02:54:52.925Z,8.65
2023-04-14T02:57:22.490Z,8.69
2023-04-14T02:59:51.506Z,8.69
2023-04-14T03:02:21.533Z,8.74
2023-04-14T03:05:01.039Z,8.75
2023-04-14T03:07:56.884Z,8.70
2023-04-14T03:10:26.958Z,8.74
2023-04-14T03:12:59.125Z,8.74
2023-04-14T03:15:28.938Z,8.73
2023-04-14T03:17:59.078Z,8.72
2023-04-14T03:20:28.167Z,8.70
2023-04-14T03:23:05.539Z,8.61
2023-04-14T03:25:42.324Z,8.64
2023-04-14T03:28:23.212Z,8.60
2023-04-14T03:30:55.501Z,8.57
2023-04-14T03:33:28.873Z,8.51
2023-04-14T03:35:59.968Z,8.41
2023-04-14T03:38:32.188Z,8.35
2023-04-14T03:41:05.748Z,8.34
2023-04-14T03:43:35.566Z,8.36
2023-04-14T03:46:07.911Z,8.39
2023-04-14T03:48:43.027Z,8.41
2023-04-14T03:51:16.194Z,8.41
2023-04-14T03:53:47.048Z,8.37
2023-04-14T03:56:18.202Z,8.30
2023-04-14T03:58:50.874Z,8.29
2023-04-14T04:01:20.670Z,8.26
2023-04-14T04:03:50.094Z,8.23
2023-04-14T04:06:19.393Z,8.26
2023-04-14T04:08:50.172Z,8.27
2023-04-14T04:11:21.794Z,8.28
2023-04-14T04:13:53.464Z,8.31
2023-04-14T04:16:24.744Z,8.35
2023-04-14T04:18:54.479Z,8.39
2023-04-14T04:21:29.150Z,8.46
2023-04-14T04:24:01.110Z,8.53
2023-04-14T04:26:30.704Z,8.59
2023-04-14T04:29:00.923Z,8.63
2023-04-14T04:31:32.934Z,8.65
2023-04-14T04:34:06.351Z,8.68
2023-04-14T04:36:36.595Z,8.72
2023-04-14T04:39:05.414Z,8.72
2023-04-14T04:41:37.303Z,8.73
2023-04-14T04:44:06.431Z,8.74
2023-04-14T04:46:56.666Z,8.78
2023-04-14T04:49:27.917Z,8.79
2023-04-14T04:51:57.714Z,8.89
2023-04-14T04:54:27.385Z,8.94
2023-04-14T04:56:57.886Z,8.94
2023-04-14T04:59:26.906Z,8.94
2023-04-14T05:01:55.775Z,8.96
2023-04-14T05:04:24.464Z,8.94
2023-04-14T05:06:53.202Z,8.95
2023-04-14T05:09:22.001Z,8.95
2023-04-14T05:11:50.958Z,8.99
2023-04-14T05:14:19.480Z,9.03
2023-04-14T05:16:48.430Z,9.06
2023-04-14T05:19:17.223Z,9.09
2023-04-14T05:21:45.930Z,9.12
2023-04-14T05:24:14.523Z,9.18
2023-04-14T05:29:14.655Z,9.35
2023-04-14T05:31:43.334Z,9.40
2023-04-14T05:34:12.237Z,9.44
2023-04-14T05:36:41.377Z,9.38
2023-04-14T05:39:10.130Z,9.39
2023-04-14T05:41:38.662Z,9.42
2023-04-14T05:44:07.428Z,9.47
2023-04-14T05:46:36.226Z,9.47
2023-04-14T05:49:05.272Z,9.52
2023-04-14T05:51:34.570Z,9.53
2023-04-14T05:54:03.293Z,9.55
2023-04-14T05:56:32.250Z,9.58
2023-04-14T05:59:01.772Z,9.64
2023-04-14T06:01:30.548Z,9.72
2023-04-14T06:03:59.390Z,9.80
2023-04-14T06:06:28.303Z,9.86
2023-04-14T06:08:56.962Z,9.91
2023-04-14T06:11:25.723Z,9.96
2023-04-14T06:13:54.383Z,10.04
2023-04-14T06:16:23.059Z,10.14
2023-04-14T06:18:51.680Z,10.22
2023-04-14T06:21:20.637Z,10.30
2023-04-14T06:23:49.455Z,10.36
2023-04-14T06:26:18.345Z,10.44
2023-04-14T06:28:47.443Z,10.52
2023-04-14T06:31:16.123Z,10.61
2023-04-14T06:33:44.881Z,10.68
2023-04-14T06:36:15.072Z,10.76
2023-04-14T06:38:43.669Z,10.83
2023-04-14T06:41:12.291Z,10.90
2023-04-14T06:43:40.968Z,10.92
2023-04-14T06:46:09.624Z,11.01
2023-04-14T06:48:38.765Z,11.14
2023-04-14T06:51:10.796Z,11.20
2023-04-14T06:53:39.914Z,11.33
2023-04-14T06:56:08.904Z,11.43
2023-04-14T06:58:37.746Z,11.53
2023-04-14T07:01:06.774Z,11.63
2023-04-14T07:03:35.516Z,11.71
2023-04-14T07:06:09.115Z,11.76
2023-04-14T07:08:39.129Z,11.82
2023-04-14T07:11:11.220Z,11.88
2023-04-14T07:13:41.100Z,11.91
2023-04-14T07:16:09.887Z,12.01
2023-04-14T07:18:38.628Z,12.09
2023-04-14T07:21:07.276Z,12.17
2023-04-14T07:23:35.874Z,12.23
2023-04-14T07:26:04.811Z,12.29
2023-04-14T07:28:33.677Z,12.35
2023-04-14T07:31:09.521Z,12.38
2023-04-14T07:33:38.190Z,12.46
2023-04-14T07:36:08.226Z,12.53
2023-04-14T07:38:36.848Z,12.60
2023-04-14T07:41:07.097Z,12.66
2023-04-14T07:43:36.184Z,12.75
2023-04-14T07:46:07.868Z,12.83
2023-04-14T07:48:38.093Z,12.90
2023-04-14T07:51:07.095Z,12.93
2023-04-14T07:53:40.646Z,12.97
2023-04-14T07:56:09.424Z,13.05
2023-04-14T07:58:38.476Z,13.14
2023-04-14T08:01:08.074Z,13.20
2023-04-14T08:03:38.015Z,13.29
2023-04-14T08:06:07.801Z,13.34
2023-04-14T08:08:36.984Z,13.42
2023-04-14T08:11:05.847Z,13.51
2023-04-14T08:13:34.513Z,13.58
2023-04-14T08:16:03.295Z,13.64
2023-04-14T08:18:32.036Z,13.71
2023-04-14T08:21:00.787Z,13.78
2023-04-14T08:23:29.500Z,13.84
2023-04-14T08:25:58.052Z,13.89
2023-04-14T08:28:29.064Z,13.98
2023-04-14T08:30:57.701Z,14.04
2023-04-14T08:33:26.536Z,14.03
2023-04-14T08:36:00.406Z,14.16
2023-04-14T08:38:29.829Z,14.22
2023-04-14T08:41:01.814Z,14.28
2023-04-14T08:43:30.632Z,14.36
2023-04-14T08:46:00.754Z,14.43
2023-04-14T08:48:32.146Z,14.48
2023-04-14T08:51:24.804Z,14.53
2023-04-14T08:53:56.312Z,14.59
2023-04-14T08:56:30.648Z,14.66
2023-04-14T08:59:01.936Z,14.73
2023-04-14T09:01:32.542Z,14.81
2023-04-14T09:04:05.024Z,14.90
2023-04-14T09:06:35.033Z,14.98
2023-04-14T09:09:09.225Z,15.06
2023-04-14T09:11:46.891Z,15.10
2023-04-14T09:14:16.641Z,15.08
2023-04-14T09:16:45.622Z,15.17
2023-04-14T09:19:15.047Z,15.26
2023-04-14T09:21:53.656Z,15.36
2023-04-14T09:24:32.250Z,15.43
2023-04-14T09:27:05.528Z,15.50
2023-04-14T09:29:34.499Z,15.64
2023-04-14T09:32:05.105Z,15.70
2023-04-14T09:34:33.718Z,15.79
2023-04-14T09:37:10.400Z,15.83
2023-04-14T09:39:50.724Z,15.91
2023-04-14T09:42:20.115Z,15.90
2023-04-14T09:44:56.248Z,15.98
2023-04-14T09:47:26.463Z,16.02
2023-04-14T09:49:58.302Z,16.09
2023-04-14T09:52:48.632Z,16.15
2023-04-14T09:55:17.403Z,16.25
2023-04-14T09:57:52.010Z,16.34
2023-04-14T10:00:22.591Z,16.43
2023-04-14T10:02:58.179Z,16.43
2023-04-14T10:05:34.592Z,16.48
2023-04-14T10:08:04.832Z,16.57
2023-04-14T10:10:33.460Z,16.71
2023-04-14T10:13:02.460Z,16.77
2023-04-14T10:15:31.903Z,16.78
2023-04-14T10:18:00.534Z,16.82
2023-04-14T10:20:29.920Z,16.87
2023-04-14T10:22:58.614Z,17.00
2023-04-14T10:25:28.124Z,17.05
2023-04-14T10:27:57.205Z,17.06
2023-04-14T10:30:26.376Z,17.03
2023-04-14T10:32:55.122Z,17.03
2023-04-14T10:35:23.823Z,17.05
2023-04-14T10:37:53.036Z,17.05
2023-04-14T10:40:22.962Z,17.06
2023-04-14T10:42:57.249Z,17.15
2023-04-14T10:45:26.120Z,17.21
2023-04-14T10:47:56.093Z,17.28
2023-04-14T10:50:25.651Z,17.36
2023-04-14T10:52:57.379Z,17.44
2023-04-14T10:55:28.317Z,17.73
2023-04-14T10:58:06.703Z,17.79
2023-04-14T11:00:38.789Z,17.76
2023-04-14T11:03:18.306Z,17.87
2023-04-14T11:05:52.177Z,18.03
2023-04-14T11:08:34.396Z,18.09
2023-04-14T11:11:05.958Z,18.10
2023-04-14T11:13:35.541Z,18.13
2023-04-14T11:16:07.419Z,18.16
2023-04-14T11:18:46.225Z,18.18
2023-04-14T11:21:17.722Z,18.14
2023-04-14T11:23:46.986Z,18.22
2023-04-14T11:26:15.533Z,18.26
2023-04-14T11:28:46.335Z,18.29
2023-04-14T11:31:17.374Z,18.29
2023-04-14T11:33:46.445Z,18.18
2023-04-14T11:36:15.020Z,18.11
2023-04-14T11:38:43.796Z,18.30
2023-04-14T11:41:15.998Z,18.42
2023-04-14T11:43:47.273Z,18.58
2023-04-14T11:46:16.667Z,18.61
2023-04-14T11:48:45.271Z,18.65
2023-04-14T11:51:14.247Z,18.69
2023-04-14T11:53:43.536Z,18.71
2023-04-14T11:56:13.250Z,18.70
2023-04-14T11:58:42.290Z,18.69
2023-04-14T12:01:14.553Z,18.75
2023-04-14T12:03:43.575Z,18.78
2023-04-14T12:06:12.341Z,18.80
2023-04-14T12:08:40.975Z,18.79
2023-04-14T12:11:16.712Z,18.78
2023-04-14T12:13:47.546Z,18.75
2023-04-14T12:16:17.634Z,18.76
2023-04-14T12:18:46.644Z,18.83
2023-04-14T12:21:19.894Z,18.96
2023-04-14T12:23:49.345Z,19.27
2023-04-14T12:26:21.151Z,19.62
2023-04-14T12:28:57.813Z,19.86
2023-04-14T12:31:32.310Z,20.18
2023-04-14T12:34:04.235Z,20.46
2023-04-14T12:36:48.820Z,20.39
2023-04-14T12:39:22.468Z,20.50
2023-04-14T12:41:51.357Z,20.77
2023-04-14T12:44:21.771Z,20.93
2023-04-14T12:46:52.816Z,21.18
2023-04-14T12:49:36.883Z,21.46
2023-04-14T12:52:08.510Z,21.67
2023-04-14T12:54:52.783Z,21.85
2023-04-14T12:57:22.452Z,22.05
2023-04-14T12:59:51.164Z,22.00
2023-04-14T13:02:20.038Z,22.05
2023-04-14T13:04:49.463Z,22.22
2023-04-14T13:07:17.850Z,22.44
2023-04-14T13:09:46.459Z,22.62
2023-04-14T13:12:15.119Z,22.78
2023-04-14T13:14:43.703Z,22.68
2023-04-14T13:17:13.370Z,22.50
2023-04-14T13:19:42.303Z,22.40
2023-04-14T13:22:11.109Z,22.62
2023-04-14T13:24:39.902Z,22.86
2023-04-14T13:27:08.516Z,23.02
2023-04-14T13:29:37.076Z,23.40
2023-04-14T13:32:12.765Z,23.57
2023-04-14T13:34:43.540Z,23.59
2023-04-14T13:37:12.383Z,23.29
2023-04-14T13:39:41.319Z,22.89
2023-04-14T13:42:09.791Z,22.42
2023-04-14T13:44:38.412Z,22.48
2023-04-14T13:47:07.087Z,22.53
2023-04-14T13:49:35.681Z,22.65
2023-04-14T13:52:04.336Z,22.81
2023-04-14T13:54:35.231Z,23.02
2023-04-14T13:57:03.953Z,23.21
2023-04-14T13:59:33.290Z,23.19
2023-04-14T14:02:02.277Z,23.23
2023-04-14T14:04:30.961Z,23.27
2023-04-14T14:07:00.042Z,23.18
2023-04-14T14:09:28.664Z,23.07
2023-04-14T14:11:57.755Z,23.03
2023-04-14T14:14:26.291Z,22.92
2023-04-14T14:16:55.425Z,22.86
2023-04-14T14:19:24.339Z,22.80
2023-04-14T14:21:53.041Z,22.45
2023-04-14T14:24:21.878Z,22.16
2023-04-14T14:26:50.709Z,21.88
2023-04-14T14:29:19.372Z,21.66
2023-04-14T14:31:48.121Z,21.45
2023-04-14T14:34:18.152Z,21.25
2023-04-14T14:36:49.821Z,20.99
2023-04-14T14:39:18.833Z,20.83
2023-04-14T14:41:48.318Z,20.71
2023-04-14T14:44:17.557Z,20.58
2023-04-14T14:46:47.617Z,20.43
2023-04-14T14:49:16.319Z,20.29
2023-04-14T14:51:45.533Z,20.15
2023-04-14T14:54:14.124Z,20.03
2023-04-14T14:56:42.966Z,19.87
2023-04-14T14:59:11.859Z,19.71
2023-04-14T15:01:40.582Z,19.59
2023-04-14T15:04:09.388Z,19.51
2023-04-14T15:06:37.923Z,19.37
2023-04-14T15:09:06.846Z,19.25
2023-04-14T15:11:35.480Z,19.11
2023-04-14T15:14:04.637Z,19.02
2023-04-14T15:16:33.652Z,18.91
2023-04-14T15:19:02.426Z,18.85
2023-04-14T15:21:32.880Z,18.76
2023-04-14T15:24:02.041Z,18.70
2023-04-14T15:26:30.873Z,18.58
2023-04-14T15:28:59.820Z,18.58
2023-04-14T15:31:28.734Z,18.49
2023-04-14T15:34:02.534Z,18.46
2023-04-14T15:36:33.913Z,18.38
2023-04-14T15:39:02.536Z,18.33
2023-04-14T15:41:31.278Z,18.28
2023-04-14T15:44:00.152Z,18.20
2023-04-14T15:46:29.016Z,18.13
2023-04-14T15:48:57.633Z,18.07
2023-04-14T15:51:26.346Z,18.02
2023-04-14T15:53:55.123Z,17.94
2023-04-14T15:56:23.850Z,17.88
2023-04-14T15:58:52.524Z,17.79
2023-04-14T16:01:21.249Z,17.76
2023-04-14T16:03:52.450Z,17.68
2023-04-14T16:06:21.612Z,17.63
2023-04-14T16:08:50.398Z,17.58
2023-04-14T16:11:20.202Z,17.54
2023-04-14T16:13:49.801Z,17.49
2023-04-14T16:16:18.618Z,17.43
2023-04-14T16:18:47.672Z,17.37
2023-04-14T16:21:16.681Z,17.34
2023-04-14T16:23:45.468Z,17.30
2023-04-14T16:26:14.164Z,17.24
2023-04-14T16:28:43.811Z,17.20
2023-04-14T16:31:12.524Z,17.15
2023-04-14T16:33:41.320Z,17.11
2023-04-14T16:36:10.265Z,17.06
2023-04-14T16:38:39.659Z,17.03
2023-04-14T16:41:08.522Z,16.98
2023-04-14T16:43:37.096Z,16.94
2023-04-14T16:46:07.250Z,16.86
2023-04-14T16:48:37.290Z,16.84
2023-04-14T16:51:11.086Z,16.76
2023-04-14T16:53:40.391Z,16.71
2023-04-14T16:56:10.628Z,16.65
2023-04-14T16:58:40.246Z,16.57
2023-04-14T17:01:09.775Z,16.50
2023-04-14T17:03:38.747Z,16.45
2023-04-14T17:06:07.540Z,16.39
2023-04-14T17:08:36.633Z,16.35
2023-04-14T17:11:05.391Z,16.29
2023-04-14T17:13:34.845Z,16.24
2023-04-14T17:16:08.797Z,16.20
2023-04-14T17:18:38.712Z,16.13
2023-04-14T17:21:07.690Z,16.08
2023-04-14T17:23:38.153Z,16.04
2023-04-14T17:26:07.171Z,16.01
2023-04-14T17:28:36.075Z,15.98
2023-04-14T17:31:13.058Z,15.94
2023-04-14T17:33:43.797Z,15.89
2023-04-14T17:36:15.532Z,15.82
2023-04-14T17:38:44.897Z,15.79
2023-04-14T17:41:13.948Z,15.75
2023-04-14T17:43:42.651Z,15.71
2023-04-14T17:46:12.071Z,15.68
2023-04-14T17:48:41.342Z,15.64
2023-04-14T17:51:11.579Z,15.61
2023-04-14T17:53:41.176Z,15.59
2023-04-14T17:56:11.562Z,15.58
2023-04-14T17:58:40.184Z,15.58
2023-04-14T18:01:08.872Z,15.54
2023-04-14T18:03:37.902Z,15.56
2023-04-14T18:06:07.246Z,15.57
2023-04-14T18:08:36.022Z,15.57
2023-04-14T18:11:05.006Z,15.56
2023-04-14T18:13:33.796Z,15.55
2023-04-14T18:16:02.591Z,15.54
2023-04-14T18:18:31.655Z,15.51
2023-04-14T18:21:00.321Z,15.50
2023-04-14T18:23:29.000Z,15.50
2023-04-14T18:28:33.900Z,15.48
2023-04-14T18:31:02.545Z,15.43
2023-04-14T18:33:31.338Z,15.45
2023-04-14T18:36:03.543Z,15.39
2023-04-14T18:38:32.532Z,15.36
2023-04-14T18:41:06.179Z,15.32
2023-04-14T18:43:34.867Z,15.29
2023-04-14T18:46:04.096Z,15.26
2023-04-14T18:48:32.855Z,15.21
2023-04-14T18:51:04.328Z,15.14
2023-04-14T18:53:32.930Z,15.08
2023-04-14T18:56:02.258Z,15.04
2023-04-14T18:58:31.326Z,14.97
2023-04-14T19:00:59.813Z,14.88
2023-04-14T19:03:28.791Z,14.83
2023-04-14T19:05:58.963Z,14.78
2023-04-14T19:08:27.679Z,14.72
2023-04-14T19:10:58.371Z,14.68
2023-04-14T19:13:26.919Z,14.63
2023-04-14T19:16:08.604Z,14.57
2023-04-14T19:18:37.580Z,14.51
2023-04-14T19:21:09.853Z,14.45
2023-04-14T19:23:40.139Z,14.37
2023-04-14T19:26:10.583Z,14.31
2023-04-14T19:28:40.646Z,14.31
2023-04-14T19:31:09.901Z,14.24
2023-04-14T19:33:42.055Z,14.17
2023-04-14T19:36:18.597Z,14.11
2023-04-14T19:38:47.457Z,14.07
2023-04-14T19:41:16.148Z,14.05
2023-04-14T19:43:46.123Z,14.01
2023-04-14T19:46:15.396Z,14.01
2023-04-14T19:48:45.696Z,13.99
2023-04-14T19:51:14.455Z,13.97
2023-04-14T19:53:43.791Z,13.92
2023-04-14T19:56:12.942Z,13.87
2023-04-14T19:58:41.533Z,13.84
2023-04-14T20:01:11.610Z,13.78
2023-04-14T20:03:41.051Z,13.72
2023-04-14T20:06:29.839Z,13.66
2023-04-14T20:08:58.336Z,13.57
2023-04-14T20:11:28.332Z,13.53
2023-04-14T20:13:57.128Z,13.48
2023-04-14T20:16:26.793Z,13.41
2023-04-14T20:18:55.903Z,13.27
2023-04-14T20:21:24.552Z,13.25
2023-04-14T20:23:53.212Z,13.23
2023-04-14T20:26:21.777Z,13.16
2023-04-14T20:28:50.606Z,13.08
2023-04-14T20:31:19.405Z,13.05
2023-04-14T20:33:48.704Z,13.01
2023-04-14T20:36:17.349Z,12.97
2023-04-14T20:38:46.146Z,12.92
2023-04-14T20:41:14.775Z,12.91
2023-04-14T20:43:43.806Z,12.89
2023-04-14T20:46:12.491Z,12.86
2023-04-14T20:48:42.325Z,12.83
2023-04-14T20:51:11.932Z,12.74
2023-04-14T20:53:40.710Z,12.73
2023-04-14T20:56:09.340Z,12.74
2023-04-14T20:58:38.627Z,12.71
2023-04-14T21:01:07.322Z,12.67
2023-04-14T21:03:36.346Z,12.64
2023-04-14T21:06:05.117Z,12.63
2023-04-14T21:08:33.721Z,12.62
2023-04-14T21:11:17.152Z,12.56
2023-04-14T21:15:26.211Z,12.54
2023-04-14T21:16:36.309Z,12.50
2023-04-14T21:19:06.005Z,12.46
2023-04-14T21:21:34.967Z,12.42
2023-04-14T21:24:03.864Z,12.40
2023-04-14T21:26:32.610Z,12.36
2023-04-14T21:29:01.887Z,12.32
2023-04-14T21:31:30.704Z,12.28
2023-04-14T21:33:59.614Z,12.24
2023-04-14T21:36:28.837Z,12.22
2023-04-14T21:38:57.728Z,12.17
2023-04-14T21:41:26.488Z,12.15
2023-04-14T21:43:55.131Z,12.13
2023-04-14T21:46:23.773Z,12.12
2023-04-14T21:48:52.477Z,12.12
2023-04-14T21:51:21.219Z,12.09
2023-04-14T21:53:49.859Z,12.07
2023-04-14T21:56:18.571Z,12.05
2023-04-14T21:58:47.390Z,12.02
2023-04-14T22:01:16.217Z,12.01
2023-04-14T22:03:45.162Z,11.86
2023-04-14T22:06:13.965Z,11.86
2023-04-14T22:08:42.622Z,11.85
2023-04-14T22:11:11.202Z,11.79
2023-04-14T22:13:39.839Z,11.80
2023-04-14T22:16:11.521Z,11.79
2023-04-14T22:18:40.612Z,11.80
2023-04-14T22:21:14.577Z,11.77
2023-04-14T22:23:44.194Z,11.77
2023-04-14T22:26:13.648Z,11.75
2023-04-14T22:28:42.475Z,11.73
2023-04-14T22:31:12.116Z,11.71
2023-04-14T22:33:41.255Z,11.68
2023-04-14T22:36:09.906Z,11.61
2023-04-14T22:38:38.649Z,11.60
2023-04-14T22:41:07.858Z,11.57
2023-04-14T22:43:36.484Z,11.55
2023-04-14T22:46:05.246Z,11.52
2023-04-14T22:48:33.769Z,11.51
2023-04-14T22:51:02.595Z,11.51
2023-04-14T22:53:31.265Z,11.51
2023-04-14T22:55:59.858Z,11.49
2023-04-14T22:58:32.187Z,11.46
2023-04-14T23:01:06.552Z,11.47
2023-04-14T23:03:41.496Z,11.47
2023-04-14T23:06:10.200Z,11.46
2023-04-14T23:08:39.184Z,11.49
2023-04-14T23:11:08.832Z,11.51
2023-04-14T23:13:37.596Z,11.54
2023-04-14T23:16:06.664Z,11.55
2023-04-14T23:18:35.439Z,11.55
2023-04-14T23:21:04.689Z,11.52
2023-04-14T23:23:33.263Z,11.55
2023-04-14T23:26:01.951Z,11.54
2023-04-14T23:28:30.626Z,11.54
2023-04-14T23:30:59.489Z,11.55
2023-04-14T23:33:28.345Z,11.59
2023-04-14T23:35:57.282Z,11.60
2023-04-14T23:38:26.557Z,11.60
2023-04-14T23:40:59.181Z,11.51
2023-04-14T23:43:29.543Z,11.52
2023-04-14T23:45:58.243Z,11.50
2023-04-14T23:48:27.337Z,11.50
2023-04-14T23:51:00.587Z,11.48
2023-04-14T23:53:33.722Z,11.47
2023-04-14T23:56:04.270Z,11.46
2023-04-14T23:58:33.979Z,11.46
